createdAt,value
2023-04-09T00:01:11.221Z,56.50
2023-04-09T00:03:40.661Z,59.70
2023-04-09T00:06:09.130Z,61.90
2023-04-09T00:08:37.497Z,59.30
2023-04-09T00:11:06.096Z,55.50
2023-04-09T00:13:39.261Z,57.60
2023-04-09T00:16:09.092Z,58.40
2023-04-09T00:18:37.688Z,56.30
2023-04-09T00:21:07.275Z,54.40
2023-04-09T00:23:36.270Z,51.80
2023-04-09T00:26:04.650Z,55.00
2023-04-09T00:28:33.158Z,62.10
2023-04-09T00:31:01.613Z,53.10
2023-04-09T00:33:30.726Z,46.90
2023-04-09T00:35:59.029Z,56.10
2023-04-09T00:38:27.276Z,54.60
2023-04-09T00:40:55.949Z,62.40
2023-04-09T00:43:24.535Z,55.00
2023-04-09T00:45:53.051Z,61.30
2023-04-09T00:48:21.599Z,61.80
2023-04-09T00:50:49.780Z,58.40
2023-04-09T00:53:18.487Z,62.40
2023-04-09T00:55:47.145Z,67.20
2023-04-09T00:58:15.848Z,61.20
2023-04-09T01:00:44.121Z,62.30
2023-04-09T01:03:13.053Z,61.90
2023-04-09T01:05:48.752Z,61.20
2023-04-09T01:08:49.608Z,60.90
2023-04-09T01:11:32.404Z,54.50
2023-04-09T01:14:24.876Z,60.30
2023-04-09T01:17:06.642Z,52.30
2023-04-09T01:19:51.216Z,55.40
2023-04-09T01:22:54.089Z,56.00
2023-04-09T01:25:36.300Z,52.10
2023-04-09T01:28:17.440Z,60.60
2023-04-09T01:30:50.646Z,54.40
2023-04-09T01:33:20.738Z,50.60
2023-04-09T01:35:51.059Z,53.80
2023-04-09T01:38:21.964Z,57.60
2023-04-09T01:40:51.143Z,50.70
2023-04-09T01:43:20.339Z,54.00
2023-04-09T01:45:49.235Z,60.30
2023-04-09T01:48:17.919Z,50.40
2023-04-09T01:50:46.813Z,55.90
2023-04-09T01:53:15.910Z,57.50
2023-04-09T01:55:44.298Z,58.40
2023-04-09T01:58:12.683Z,57.70
2023-04-09T02:00:48.289Z,59.30
2023-04-09T02:03:34.084Z,62.30
2023-04-09T02:06:19.686Z,67.80
2023-04-09T02:08:48.982Z,65.50
2023-04-09T02:11:18.308Z,65.70
2023-04-09T02:13:46.870Z,60.30
2023-04-09T02:16:16.944Z,60.70
2023-04-09T02:18:45.368Z,55.10
2023-04-09T02:21:14.369Z,57.60
2023-04-09T02:23:42.643Z,57.80
2023-04-09T02:26:11.119Z,54.60
2023-04-09T02:28:39.401Z,53.80
2023-04-09T02:31:07.870Z,53.20
2023-04-09T02:33:36.360Z,52.10
2023-04-09T02:36:05.912Z,50.80
2023-04-09T02:38:34.141Z,50.30
2023-04-09T02:41:02.321Z,50.30
2023-04-09T02:43:31.002Z,50.10
2023-04-09T02:45:59.506Z,48.90
2023-04-09T02:48:28.384Z,47.70
2023-04-09T02:50:57.286Z,50.20
2023-04-09T02:53:26.118Z,54.10
2023-04-09T02:55:54.645Z,55.20
2023-04-09T02:58:23.022Z,51.40
2023-04-09T03:00:51.352Z,56.10
2023-04-09T03:03:19.918Z,57.30
2023-04-09T03:05:48.365Z,54.50
2023-04-09T03:08:16.884Z,55.50
2023-04-09T03:10:45.230Z,53.30
2023-04-09T03:13:13.712Z,57.40
2023-04-09T03:15:42.147Z,52.30
2023-04-09T03:18:10.776Z,56.10
2023-04-09T03:20:40.081Z,47.80
2023-04-09T03:23:11.013Z,54.60
2023-04-09T03:25:42.876Z,51.90
2023-04-09T03:28:16.486Z,48.10
2023-04-09T03:30:50.739Z,44.80
2023-04-09T03:33:19.909Z,48.20
2023-04-09T03:36:06.963Z,45.80
2023-04-09T03:38:55.617Z,48.40
2023-04-09T03:41:31.723Z,48.40
2023-04-09T03:44:02.870Z,47.40
2023-04-09T03:46:36.613Z,50.50
2023-04-09T03:49:05.462Z,49.50
2023-04-09T03:51:41.419Z,51.20
2023-04-09T03:54:09.691Z,56.30
2023-04-09T03:56:38.075Z,55.30
2023-04-09T03:59:09.008Z,53.10
2023-04-09T04:01:40.671Z,59.00
2023-04-09T04:04:09.385Z,53.70
2023-04-09T04:06:42.664Z,57.80
2023-04-09T04:09:24.541Z,47.80
2023-04-09T04:11:58.979Z,50.70
2023-04-09T04:14:38.910Z,50.70
2023-04-09T04:17:15.076Z,57.90
2023-04-09T04:19:43.556Z,51.60
2023-04-09T04:22:12.255Z,52.80
2023-04-09T04:24:42.393Z,49.10
2023-04-09T04:27:10.898Z,50.60
2023-04-09T04:29:39.221Z,50.10
2023-04-09T04:32:21.533Z,55.30
2023-04-09T04:34:50.752Z,57.70
2023-04-09T04:37:25.681Z,59.60
2023-04-09T04:39:56.779Z,55.80
2023-04-09T04:42:25.285Z,59.30
2023-04-09T04:44:53.871Z,55.10
2023-04-09T04:47:47.765Z,57.10
2023-04-09T04:50:16.376Z,55.00
2023-04-09T04:52:57.818Z,59.20
2023-04-09T04:55:29.270Z,58.20
2023-04-09T04:57:58.158Z,54.50
2023-04-09T05:00:28.895Z,53.30
2023-04-09T05:03:01.617Z,54.70
2023-04-09T05:05:54.634Z,55.70
2023-04-09T05:08:23.627Z,47.40
2023-04-09T05:10:56.335Z,52.50
2023-04-09T05:13:28.984Z,51.10
2023-04-09T05:15:57.670Z,50.40
2023-04-09T05:18:26.459Z,54.00
2023-04-09T05:20:54.833Z,55.40
2023-04-09T05:23:23.432Z,52.70
2023-04-09T05:25:51.759Z,57.60
2023-04-09T05:28:28.373Z,59.90
2023-04-09T05:31:05.376Z,54.10
2023-04-09T05:33:38.470Z,61.40
2023-04-09T05:36:19.190Z,58.10
2023-04-09T05:38:48.101Z,55.50
2023-04-09T05:41:16.602Z,50.80
2023-04-09T05:44:14.270Z,60.30
2023-04-09T05:46:42.633Z,55.70
2023-04-09T05:49:11.729Z,55.10
2023-04-09T05:51:40.557Z,49.90
2023-04-09T05:54:09.101Z,52.00
2023-04-09T05:56:38.753Z,50.40
2023-04-09T05:59:08.138Z,46.10
2023-04-09T06:01:36.387Z,45.80
2023-04-09T06:04:05.380Z,47.80
2023-04-09T06:06:33.760Z,45.20
2023-04-09T06:09:01.832Z,44.30
2023-04-09T06:11:33.490Z,55.20
2023-04-09T06:14:01.968Z,46.10
2023-04-09T06:16:30.350Z,47.20
2023-04-09T06:18:58.730Z,48.70
2023-04-09T06:21:27.003Z,52.10
2023-04-09T06:23:55.313Z,49.20
2023-04-09T06:26:23.462Z,46.60
2023-04-09T06:28:52.555Z,46.60
2023-04-09T06:31:21.303Z,42.80
2023-04-09T06:33:49.619Z,38.30
2023-04-09T06:36:17.792Z,39.60
2023-04-09T06:38:46.521Z,42.10
2023-04-09T06:41:15.067Z,43.10
2023-04-09T06:43:43.356Z,39.40
2023-04-09T06:46:12.246Z,40.80
2023-04-09T06:48:42.653Z,43.20
2023-04-09T06:51:11.449Z,40.10
2023-04-09T06:53:39.779Z,34.40
2023-04-09T06:56:08.381Z,41.40
2023-04-09T06:58:36.994Z,32.90
2023-04-09T07:01:06.185Z,28.80
2023-04-09T07:03:34.698Z,32.00
2023-04-09T07:06:03.367Z,35.70
2023-04-09T07:08:31.523Z,27.90
2023-04-09T07:10:59.806Z,28.50
2023-04-09T07:16:01.216Z,30.10
2023-04-09T07:18:30.690Z,27.00
2023-04-09T07:20:59.453Z,27.40
2023-04-09T07:23:27.863Z,25.60
2023-04-09T07:25:56.261Z,30.20
2023-04-09T07:28:24.488Z,26.70
2023-04-09T07:30:53.592Z,27.60
2023-04-09T07:33:21.999Z,29.90
2023-04-09T07:35:50.406Z,34.50
2023-04-09T07:38:18.580Z,27.90
2023-04-09T07:40:47.456Z,27.40
2023-04-09T07:43:15.830Z,25.70
2023-04-09T07:45:44.902Z,24.80
2023-04-09T07:48:13.276Z,27.70
2023-04-09T07:50:41.496Z,25.40
2023-04-09T07:53:09.830Z,25.20
2023-04-09T07:55:38.392Z,23.50
2023-04-09T07:58:07.654Z,24.20
2023-04-09T08:00:36.649Z,25.70
2023-04-09T08:03:05.391Z,26.20
2023-04-09T08:05:33.917Z,22.40
2023-04-09T08:08:01.998Z,24.20
2023-04-09T08:10:30.441Z,33.30
2023-04-09T08:12:58.672Z,26.20
2023-04-09T08:15:27.506Z,25.00
2023-04-09T08:17:55.684Z,25.30
2023-04-09T08:20:24.367Z,26.10
2023-04-09T08:22:52.644Z,24.50
2023-04-09T08:25:21.228Z,25.20
2023-04-09T08:27:49.382Z,23.90
2023-04-09T08:30:18.891Z,22.40
2023-04-09T08:32:47.521Z,31.50
2023-04-09T08:35:16.060Z,24.10
2023-04-09T08:37:44.378Z,23.00
2023-04-09T08:40:12.943Z,23.60
2023-04-09T08:42:46.159Z,21.70
2023-04-09T08:45:14.603Z,38.90
2023-04-09T08:47:44.971Z,29.10
2023-04-09T08:50:14.671Z,24.20
2023-04-09T08:52:46.216Z,21.30
2023-04-09T08:55:14.388Z,23.90
2023-04-09T08:57:42.869Z,21.80
2023-04-09T09:00:12.563Z,23.50
2023-04-09T09:03:07.278Z,22.50
2023-04-09T09:05:44.742Z,22.40
2023-04-09T09:08:33.597Z,27.40
2023-04-09T09:11:02.121Z,17.40
2023-04-09T09:13:30.385Z,21.20
2023-04-09T09:16:13.761Z,33.50
2023-04-09T09:18:44.223Z,21.00
2023-04-09T09:21:17.529Z,29.10
2023-04-09T09:23:48.500Z,20.00
2023-04-09T09:26:23.237Z,34.10
2023-04-09T09:28:52.515Z,17.70
2023-04-09T09:31:22.936Z,35.30
2023-04-09T09:33:52.105Z,16.70
2023-04-09T09:36:34.830Z,19.30
2023-04-09T09:39:10.610Z,19.20
2023-04-09T09:41:42.522Z,40.20
2023-04-09T09:44:12.175Z,32.40
2023-04-09T09:46:42.719Z,23.90
2023-04-09T09:49:10.955Z,25.40
2023-04-09T09:51:40.904Z,27.90
2023-04-09T09:54:13.036Z,20.90
2023-04-09T09:56:43.718Z,19.80
2023-04-09T09:59:23.115Z,17.70
2023-04-09T10:02:00.037Z,23.70
2023-04-09T10:04:35.002Z,18.50
2023-04-09T10:07:07.282Z,19.40
2023-04-09T10:09:38.363Z,27.80
2023-04-09T10:12:09.881Z,19.20
2023-04-09T10:14:40.410Z,20.10
2023-04-09T10:17:09.000Z,20.80
2023-04-09T10:19:46.896Z,21.40
2023-04-09T10:22:21.245Z,21.90
2023-04-09T10:24:51.624Z,18.80
2023-04-09T10:27:23.673Z,26.10
2023-04-09T10:29:52.295Z,18.60
2023-04-09T10:32:23.852Z,17.70
2023-04-09T10:34:52.849Z,17.60
2023-04-09T10:37:23.679Z,22.40
2023-04-09T10:39:53.284Z,20.10
2023-04-09T10:42:24.974Z,43.20
2023-04-09T10:45:15.213Z,16.80
2023-04-09T10:47:44.316Z,24.10
2023-04-09T10:50:28.034Z,19.70
2023-04-09T10:52:58.366Z,22.30
2023-04-09T10:55:40.963Z,20.00
2023-04-09T10:58:13.285Z,16.00
2023-04-09T11:00:44.765Z,19.10
2023-04-09T11:03:23.609Z,17.40
2023-04-09T11:06:02.975Z,20.10
2023-04-09T11:08:33.681Z,18.50
2023-04-09T11:11:02.780Z,16.50
2023-04-09T11:13:32.703Z,18.40
2023-04-09T11:16:03.528Z,20.40
2023-04-09T11:18:37.293Z,19.00
2023-04-09T11:21:06.570Z,18.70
2023-04-09T11:23:35.040Z,19.70
2023-04-09T11:26:04.092Z,20.40
2023-04-09T11:28:32.344Z,18.80
2023-04-09T11:31:00.869Z,18.30
2023-04-09T11:33:34.561Z,16.20
2023-04-09T11:36:06.577Z,16.00
2023-04-09T11:38:37.272Z,18.20
2023-04-09T11:41:05.545Z,24.00
2023-04-09T11:43:36.569Z,19.60
2023-04-09T11:46:06.194Z,18.40
2023-04-09T11:48:35.142Z,20.20
2023-04-09T11:51:04.151Z,17.20
2023-04-09T11:53:32.580Z,16.10
2023-04-09T11:56:01.717Z,19.70
2023-04-09T11:58:29.903Z,18.90
2023-04-09T12:00:59.207Z,17.20
2023-04-09T12:03:34.137Z,15.80
2023-04-09T12:06:04.184Z,21.20
2023-04-09T12:08:36.038Z,22.60
2023-04-09T12:11:12.814Z,18.00
2023-04-09T12:13:45.672Z,21.30
2023-04-09T12:16:14.970Z,22.70
2023-04-09T12:18:43.963Z,26.20
2023-04-09T12:21:12.988Z,27.40
2023-04-09T12:23:41.231Z,21.00
2023-04-09T12:26:09.706Z,18.00
2023-04-09T12:28:38.191Z,24.60
2023-04-09T12:31:11.168Z,24.20
2023-04-09T12:33:40.681Z,23.40
2023-04-09T12:36:09.116Z,21.50
2023-04-09T12:38:37.645Z,25.10
2023-04-09T12:41:05.907Z,62.70
2023-04-09T12:43:34.342Z,72.60
2023-04-09T12:46:04.082Z,162.20
2023-04-09T12:48:33.302Z,26.80
2023-04-09T12:51:02.106Z,18.20
2023-04-09T12:53:32.216Z,17.00
2023-04-09T12:56:01.859Z,21.80
2023-04-09T12:58:31.524Z,17.30
2023-04-09T13:01:00.368Z,17.30
2023-04-09T13:03:29.519Z,18.40
2023-04-09T13:05:58.314Z,16.20
2023-04-09T13:08:26.729Z,16.60
2023-04-09T13:10:55.321Z,16.70
2023-04-09T13:13:23.748Z,19.80
2023-04-09T13:15:52.279Z,17.80
2023-04-09T13:18:20.534Z,17.30
2023-04-09T13:20:48.709Z,18.90
2023-04-09T13:23:17.032Z,21.30
2023-04-09T13:25:45.296Z,17.70
2023-04-09T13:28:13.335Z,15.30
2023-04-09T13:30:41.742Z,13.90
2023-04-09T13:33:10.007Z,18.20
2023-04-09T13:35:41.135Z,19.20
2023-04-09T13:38:09.485Z,25.10
2023-04-09T13:40:37.667Z,21.00
2023-04-09T13:43:07.882Z,22.20
2023-04-09T13:45:36.157Z,19.30
2023-04-09T13:48:07.264Z,18.50
2023-04-09T13:50:35.516Z,20.50
2023-04-09T13:53:05.440Z,22.70
2023-04-09T13:55:33.500Z,18.80
2023-04-09T13:58:01.628Z,15.40
2023-04-09T14:00:31.195Z,15.90
2023-04-09T14:02:59.726Z,13.20
2023-04-09T14:05:30.160Z,13.80
2023-04-09T14:07:59.563Z,14.30
2023-04-09T14:10:27.691Z,15.30
2023-04-09T14:12:56.726Z,17.40
2023-04-09T14:15:26.039Z,14.30
2023-04-09T14:17:56.855Z,15.90
2023-04-09T14:20:25.348Z,14.20
2023-04-09T14:22:54.853Z,13.70
2023-04-09T14:25:23.738Z,21.40
2023-04-09T14:27:52.539Z,15.00
2023-04-09T14:30:22.852Z,17.00
2023-04-09T14:32:51.207Z,16.70
2023-04-09T14:35:20.324Z,17.40
2023-04-09T14:37:48.939Z,18.90
2023-04-09T14:40:17.410Z,19.80
2023-04-09T14:42:45.976Z,19.90
2023-04-09T14:45:14.458Z,14.70
2023-04-09T14:47:42.866Z,21.70
2023-04-09T14:50:13.001Z,16.10
2023-04-09T14:52:42.294Z,17.30
2023-04-09T14:55:12.675Z,17.00
2023-04-09T14:57:42.211Z,13.20
2023-04-09T15:00:12.661Z,14.10
2023-04-09T15:02:41.716Z,17.50
2023-04-09T15:05:10.870Z,13.00
2023-04-09T15:07:39.402Z,21.90
2023-04-09T15:10:08.510Z,21.30
2023-04-09T15:12:36.796Z,16.70
2023-04-09T15:15:09.568Z,17.40
2023-04-09T15:17:38.054Z,16.40
2023-04-09T15:20:07.961Z,33.30
2023-04-09T15:22:36.952Z,32.70
2023-04-09T15:25:05.742Z,16.60
2023-04-09T15:27:34.012Z,15.70
2023-04-09T15:30:02.423Z,173.70
2023-04-09T15:32:31.686Z,43.60
2023-04-09T15:35:00.947Z,28.10
2023-04-09T15:37:30.181Z,18.00
2023-04-09T15:39:58.776Z,18.20
2023-04-09T15:42:27.361Z,20.30
2023-04-09T15:44:56.158Z,21.10
2023-04-09T15:47:24.865Z,18.20
2023-04-09T15:49:53.329Z,22.30
2023-04-09T15:52:22.003Z,18.10
2023-04-09T15:54:50.481Z,18.50
2023-04-09T15:57:19.816Z,21.20
2023-04-09T15:59:48.627Z,24.50
2023-04-09T16:02:16.765Z,24.20
2023-04-09T16:04:45.723Z,21.30
2023-04-09T16:07:17.906Z,18.00
2023-04-09T16:09:46.795Z,22.50
2023-04-09T16:12:15.187Z,21.40
2023-04-09T16:14:43.569Z,22.20
2023-04-09T16:17:11.869Z,23.70
2023-04-09T16:19:40.108Z,28.20
2023-04-09T16:22:08.723Z,25.10
2023-04-09T16:24:37.583Z,26.70
2023-04-09T16:27:06.066Z,44.30
2023-04-09T16:29:34.764Z,51.10
2023-04-09T16:32:04.078Z,35.20
2023-04-09T16:34:32.431Z,32.60
2023-04-09T16:37:00.907Z,30.30
2023-04-09T16:39:29.580Z,23.00
2023-04-09T16:42:01.818Z,25.30
2023-04-09T16:44:30.552Z,25.60
2023-04-09T16:46:58.827Z,29.10
2023-04-09T16:49:27.311Z,33.00
2023-04-09T16:51:57.504Z,37.30
2023-04-09T16:54:26.321Z,44.10
2023-04-09T16:56:56.134Z,41.00
2023-04-09T16:59:24.923Z,41.90
2023-04-09T17:01:53.621Z,39.90
2023-04-09T17:04:22.182Z,32.40
2023-04-09T17:06:50.574Z,31.30
2023-04-09T17:09:18.949Z,26.60
2023-04-09T17:11:47.332Z,29.40
2023-04-09T17:14:16.057Z,23.70
2023-04-09T17:16:44.513Z,23.70
2023-04-09T17:19:14.113Z,24.00
2023-04-09T17:21:42.484Z,26.10
2023-04-09T17:24:10.967Z,24.10
2023-04-09T17:26:39.891Z,26.90
2023-04-09T17:29:08.089Z,28.00
2023-04-09T17:31:36.701Z,29.60
2023-04-09T17:34:05.201Z,29.90
2023-04-09T17:36:33.380Z,28.20
2023-04-09T17:39:01.965Z,27.90
2023-04-09T17:41:30.852Z,32.40
2023-04-09T17:43:59.023Z,34.20
2023-04-09T17:46:27.554Z,32.90
2023-04-09T17:48:56.606Z,28.10
2023-04-09T17:51:24.780Z,25.50
2023-04-09T17:53:54.055Z,24.60
2023-04-09T17:56:22.969Z,26.20
2023-04-09T17:58:51.818Z,28.10
2023-04-09T18:01:21.012Z,28.20
2023-04-09T18:03:49.681Z,44.00
2023-04-09T18:06:18.225Z,84.30
2023-04-09T18:08:46.399Z,50.20
2023-04-09T18:11:18.227Z,45.60
2023-04-09T18:13:46.761Z,35.40
2023-04-09T18:16:15.458Z,33.40
2023-04-09T18:18:43.813Z,32.50
2023-04-09T18:21:15.086Z,35.60
2023-04-09T18:23:43.330Z,33.30
2023-04-09T18:26:11.710Z,40.80
2023-04-09T18:28:40.607Z,35.60
2023-04-09T18:31:11.570Z,39.40
2023-04-09T18:33:40.104Z,44.20
2023-04-09T18:36:08.873Z,56.20
2023-04-09T18:38:37.613Z,43.00
2023-04-09T18:41:05.989Z,45.70
2023-04-09T18:43:34.466Z,45.50
2023-04-09T18:46:08.687Z,51.30
2023-04-09T18:48:37.357Z,43.80
2023-04-09T18:51:09.529Z,41.40
2023-04-09T18:53:38.033Z,40.80
2023-04-09T18:56:07.416Z,32.50
2023-04-09T18:58:36.458Z,33.60
2023-04-09T19:01:14.599Z,34.20
2023-04-09T19:03:43.252Z,33.80
2023-04-09T19:06:16.841Z,36.30
2023-04-09T19:08:46.324Z,33.50
2023-04-09T19:11:15.202Z,33.20
2023-04-09T19:13:44.135Z,35.00
2023-04-09T19:16:12.619Z,36.00
2023-04-09T19:18:41.159Z,39.20
2023-04-09T19:21:09.292Z,42.60
2023-04-09T19:23:39.146Z,42.40
2023-04-09T19:26:07.527Z,39.90
2023-04-09T19:28:36.251Z,40.60
2023-04-09T19:31:06.439Z,33.30
2023-04-09T19:33:34.716Z,29.40
2023-04-09T19:36:02.898Z,36.20
2023-04-09T19:38:31.163Z,30.70
2023-04-09T19:40:59.542Z,32.00
2023-04-09T19:43:29.352Z,29.60
2023-04-09T19:45:57.845Z,37.50
2023-04-09T19:48:26.327Z,33.60
2023-04-09T19:50:54.725Z,36.20
2023-04-09T19:53:23.278Z,33.80
2023-04-09T19:55:51.755Z,31.10
2023-04-09T19:58:19.949Z,30.80
2023-04-09T20:00:48.406Z,36.00
2023-04-09T20:03:17.372Z,33.20
2023-04-09T20:05:45.750Z,32.60
2023-04-09T20:08:15.858Z,33.20
2023-04-09T20:10:46.948Z,37.40
2023-04-09T20:13:15.230Z,29.10
2023-04-09T20:15:44.526Z,31.30
2023-04-09T20:18:12.908Z,29.60
2023-04-09T20:20:41.285Z,31.80
2023-04-09T20:23:09.878Z,31.30
2023-04-09T20:25:38.266Z,33.00
2023-04-09T20:28:06.627Z,30.70
2023-04-09T20:30:35.105Z,29.60
2023-04-09T20:33:03.526Z,36.80
2023-04-09T20:35:36.607Z,29.20
2023-04-09T20:38:04.952Z,30.00
2023-04-09T20:40:36.140Z,30.30
2023-04-09T20:43:04.679Z,29.70
2023-04-09T20:45:32.995Z,27.90
2023-04-09T20:48:01.693Z,28.80
2023-04-09T20:50:31.150Z,28.00
2023-04-09T20:52:59.650Z,27.30
2023-04-09T20:55:27.812Z,29.30
2023-04-09T20:57:56.612Z,28.20
2023-04-09T21:00:24.971Z,28.00
2023-04-09T21:02:53.307Z,29.90
2023-04-09T21:05:23.981Z,32.10
2023-04-09T21:07:53.284Z,34.90
2023-04-09T21:10:21.889Z,34.10
2023-04-09T21:12:50.244Z,32.50
2023-04-09T21:15:18.524Z,37.30
2023-04-09T21:17:46.852Z,33.80
2023-04-09T21:20:16.772Z,34.60
2023-04-09T21:22:45.846Z,31.20
2023-04-09T21:25:15.428Z,30.50
2023-04-09T21:27:44.007Z,40.10
2023-04-09T21:30:12.494Z,32.40
2023-04-09T21:32:40.731Z,32.20
2023-04-09T21:35:08.949Z,31.60
2023-04-09T21:37:38.447Z,32.30
2023-04-09T21:40:07.566Z,36.80
2023-04-09T21:42:36.052Z,34.50
2023-04-09T21:45:05.121Z,33.10
2023-04-09T21:47:33.742Z,32.90
2023-04-09T21:50:03.566Z,31.10
2023-04-09T21:52:32.412Z,32.70
2023-04-09T21:55:01.154Z,30.30
2023-04-09T21:57:29.679Z,35.10
2023-04-09T21:59:58.885Z,30.90
2023-04-09T22:02:28.527Z,29.80
2023-04-09T22:05:00.117Z,27.60
2023-04-09T22:07:28.625Z,30.30
2023-04-09T22:09:57.937Z,29.10
2023-04-09T22:12:26.311Z,29.60
2023-04-09T22:14:54.688Z,31.00
2023-04-09T22:17:22.878Z,32.40
2023-04-09T22:19:51.263Z,31.60
2023-04-09T22:22:19.414Z,31.80
2023-04-09T22:24:47.597Z,32.30
2023-04-09T22:27:16.433Z,31.20
2023-04-09T22:29:44.958Z,33.20
2023-04-09T22:32:13.753Z,31.60
2023-04-09T22:34:42.024Z,28.50
2023-04-09T22:37:10.620Z,32.50
2023-04-09T22:39:38.986Z,29.00
2023-04-09T22:42:07.775Z,30.10
2023-04-09T22:44:36.464Z,31.80
2023-04-09T22:47:04.639Z,31.80
2023-04-09T22:49:32.930Z,31.50
2023-04-09T22:52:01.391Z,33.50
2023-04-09T22:54:30.386Z,33.50
2023-04-09T22:56:58.565Z,33.00
2023-04-09T22:59:39.017Z,34.50
2023-04-09T23:02:08.759Z,35.10
2023-04-09T23:04:37.479Z,29.40
2023-04-09T23:07:06.000Z,32.40
2023-04-09T23:09:34.378Z,29.50
2023-04-09T23:12:03.076Z,31.00
2023-04-09T23:14:31.345Z,25.70
2023-04-09T23:16:59.514Z,26.30
2023-04-09T23:19:28.001Z,26.40
2023-04-09T23:21:56.593Z,30.90
2023-04-09T23:24:24.942Z,28.90
2023-04-09T23:26:53.337Z,28.40
2023-04-09T23:29:21.510Z,28.10
2023-04-09T23:31:49.639Z,31.80
2023-04-09T23:34:17.865Z,29.80
2023-04-09T23:36:46.342Z,29.90
2023-04-09T23:39:14.723Z,29.90
2023-04-09T23:41:43.205Z,33.20
2023-04-09T23:44:11.284Z,27.70
2023-04-09T23:46:39.514Z,33.30
2023-04-09T23:49:07.827Z,35.10
2023-04-09T23:51:36.310Z,31.40
2023-04-09T23:54:04.502Z,31.80
2023-04-09T23:56:33.587Z,33.40
2023-04-09T23:59:01.766Z,30.30
